sensor_id;sensor_type;location;lat;lon;timestamp;pressure;altitude;pressure_sealevel;temperature;humidity
37694;BME280;23531;50.122;8.644;2024-01-07T00:00:17;100146.72;;;7.10;73.45
37694;BME280;23531;50.122;8.644;2024-01-07T00:02:20;100150.59;;;7.07;73.28
37694;BME280;23531;50.122;8.644;2024-01-07T00:04:21;100154.34;;;6.91;74.00
37694;BME280;23531;50.122;8.644;2024-01-07T00:06:22;100156.13;;;7.06;73.42
37694;BME280;23531;50.122;8.644;2024-01-07T00:08:24;100142.31;;;7.02;73.52
37694;BME280;23531;50.122;8.644;2024-01-07T00:10:25;100154.44;;;6.98;73.77
37694;BME280;23531;50.122;8.644;2024-01-07T00:12:27;100156.47;;;6.96;73.59
37694;BME280;23531;50.122;8.644;2024-01-07T00:14:28;100147.81;;;6.94;73.54
37694;BME280;23531;50.122;8.644;2024-01-07T00:16:28;100151.59;;;7.06;72.98
37694;BME280;23531;50.122;8.644;2024-01-07T00:18:31;100162.69;;;7.03;72.88
37694;BME280;23531;50.122;8.644;2024-01-07T00:20:32;100160.97;;;6.96;73.15
37694;BME280;23531;50.122;8.644;2024-01-07T00:22:33;100163.88;;;7.01;73.23
37694;BME280;23531;50.122;8.644;2024-01-07T00:24:34;100172.53;;;7.03;73.38
37694;BME280;23531;50.122;8.644;2024-01-07T00:26:35;100173.31;;;6.97;72.82
37694;BME280;23531;50.122;8.644;2024-01-07T00:28:36;100161.34;;;6.92;73.41
37694;BME280;23531;50.122;8.644;2024-01-07T00:30:38;100170.59;;;6.90;72.89
37694;BME280;23531;50.122;8.644;2024-01-07T00:32:38;100166.69;;;6.92;72.98
37694;BME280;23531;50.122;8.644;2024-01-07T00:34:41;100167.97;;;6.97;73.14
37694;BME280;23531;50.122;8.644;2024-01-07T00:36:42;100168.53;;;6.92;72.75
37694;BME280;23531;50.122;8.644;2024-01-07T00:38:44;100168.31;;;6.87;73.35
37694;BME280;23531;50.122;8.644;2024-01-07T00:40:45;100171.41;;;6.90;72.55
37694;BME280;23531;50.122;8.644;2024-01-07T00:42:46;100174.50;;;6.87;72.98
37694;BME280;23531;50.122;8.644;2024-01-07T00:44:48;100172.44;;;6.89;73.21
37694;BME280;23531;50.122;8.644;2024-01-07T00:46:49;100175.38;;;6.95;73.10
37694;BME280;23531;50.122;8.644;2024-01-07T00:48:50;100168.34;;;6.93;72.93
37694;BME280;23531;50.122;8.644;2024-01-07T00:50:53;100170.91;;;6.80;73.16
37694;BME280;23531;50.122;8.644;2024-01-07T00:52:55;100180.59;;;6.81;73.29
37694;BME280;23531;50.122;8.644;2024-01-07T00:54:56;100183.63;;;6.78;73.20
37694;BME280;23531;50.122;8.644;2024-01-07T00:56:58;100189.38;;;6.54;74.13
37694;BME280;23531;50.122;8.644;2024-01-07T00:58:58;100182.75;;;6.71;73.75
37694;BME280;23531;50.122;8.644;2024-01-07T01:00:59;100181.38;;;6.75;73.49
37694;BME280;23531;50.122;8.644;2024-01-07T01:03:01;100185.88;;;6.75;73.17
37694;BME280;23531;50.122;8.644;2024-01-07T01:05:01;100186.53;;;6.77;73.21
37694;BME280;23531;50.122;8.644;2024-01-07T01:07:04;100186.91;;;6.74;73.40
37694;BME280;23531;50.122;8.644;2024-01-07T01:09:05;100189.56;;;6.74;73.36
37694;BME280;23531;50.122;8.644;2024-01-07T01:11:08;100192.66;;;6.77;73.14
37694;BME280;23531;50.122;8.644;2024-01-07T01:13:10;100192.06;;;6.75;73.24
37694;BME280;23531;50.122;8.644;2024-01-07T01:15:11;100206.09;;;6.63;73.25
37694;BME280;23531;50.122;8.644;2024-01-07T01:17:13;100204.41;;;6.76;73.35
37694;BME280;23531;50.122;8.644;2024-01-07T01:19:14;100211.25;;;6.85;72.99
37694;BME280;23531;50.122;8.644;2024-01-07T01:21:16;100208.50;;;6.79;72.79
37694;BME280;23531;50.122;8.644;2024-01-07T01:23:18;100218.97;;;6.74;73.09
37694;BME280;23531;50.122;8.644;2024-01-07T01:25:20;100218.31;;;6.72;73.20
37694;BME280;23531;50.122;8.644;2024-01-07T01:27:21;100208.81;;;6.69;73.16
37694;BME280;23531;50.122;8.644;2024-01-07T01:29:23;100217.84;;;6.68;73.28
37694;BME280;23531;50.122;8.644;2024-01-07T01:31:25;100218.31;;;6.72;73.08
37694;BME280;23531;50.122;8.644;2024-01-07T01:33:26;100218.31;;;6.72;72.80
37694;BME280;23531;50.122;8.644;2024-01-07T01:35:28;100220.34;;;6.70;72.94
37694;BME280;23531;50.122;8.644;2024-01-07T01:37:29;100220.81;;;6.73;72.61
37694;BME280;23531;50.122;8.644;2024-01-07T01:39:34;100228.44;;;6.76;73.02
37694;BME280;23531;50.122;8.644;2024-01-07T01:41:35;100229.84;;;6.72;72.89
37694;BME280;23531;50.122;8.644;2024-01-07T01:43:37;100221.44;;;6.75;72.96
37694;BME280;23531;50.122;8.644;2024-01-07T01:45:37;100222.00;;;6.71;73.32
37694;BME280;23531;50.122;8.644;2024-01-07T01:47:39;100219.09;;;6.66;73.23
37694;BME280;23531;50.122;8.644;2024-01-07T01:49:40;100221.66;;;6.59;73.37
37694;BME280;23531;50.122;8.644;2024-01-07T01:51:42;100222.38;;;6.68;73.05
37694;BME280;23531;50.122;8.644;2024-01-07T01:53:44;100219.88;;;6.66;73.11
37694;BME280;23531;50.122;8.644;2024-01-07T01:55:47;100224.81;;;6.63;73.40
37694;BME280;23531;50.122;8.644;2024-01-07T01:57:49;100224.84;;;6.69;73.02
37694;BME280;23531;50.122;8.644;2024-01-07T01:59:51;100227.16;;;6.72;72.92
37694;BME280;23531;50.122;8.644;2024-01-07T02:01:53;100231.13;;;6.76;73.29
37694;BME280;23531;50.122;8.644;2024-01-07T02:03:55;100228.53;;;6.68;73.26
37694;BME280;23531;50.122;8.644;2024-01-07T02:05:57;100229.06;;;6.78;73.45
37694;BME280;23531;50.122;8.644;2024-01-07T02:07:59;100228.81;;;6.73;73.05
37694;BME280;23531;50.122;8.644;2024-01-07T02:10:00;100235.19;;;6.72;73.30
37694;BME280;23531;50.122;8.644;2024-01-07T02:12:04;100222.00;;;6.71;72.81
37694;BME280;23531;50.122;8.644;2024-01-07T02:14:06;100230.56;;;6.66;73.41
37694;BME280;23531;50.122;8.644;2024-01-07T02:16:07;100225.63;;;6.63;73.67
37694;BME280;23531;50.122;8.644;2024-01-07T02:18:09;100230.19;;;6.69;73.09
37694;BME280;23531;50.122;8.644;2024-01-07T02:20:10;100232.69;;;6.71;73.56
37694;BME280;23531;50.122;8.644;2024-01-07T02:22:12;100228.69;;;6.81;73.03
37694;BME280;23531;50.122;8.644;2024-01-07T02:24:16;100225.00;;;6.82;73.42
37694;BME280;23531;50.122;8.644;2024-01-07T02:26:18;100229.19;;;6.70;73.59
37694;BME280;23531;50.122;8.644;2024-01-07T02:28:18;100226.88;;;6.67;73.59
37694;BME280;23531;50.122;8.644;2024-01-07T02:30:20;100228.94;;;6.65;73.68
37694;BME280;23531;50.122;8.644;2024-01-07T02:32:21;100232.00;;;6.62;73.99
37694;BME280;23531;50.122;8.644;2024-01-07T02:34:22;100233.88;;;6.68;73.93
37694;BME280;23531;50.122;8.644;2024-01-07T02:36:23;100237.28;;;6.77;73.97
37694;BME280;23531;50.122;8.644;2024-01-07T02:38:24;100236.56;;;6.68;74.36
37694;BME280;23531;50.122;8.644;2024-01-07T02:40:27;100244.56;;;6.68;74.34
37694;BME280;23531;50.122;8.644;2024-01-07T02:42:29;100240.06;;;6.69;74.58
37694;BME280;23531;50.122;8.644;2024-01-07T02:44:30;100242.19;;;6.73;74.40
37694;BME280;23531;50.122;8.644;2024-01-07T02:46:31;100241.34;;;6.73;74.53
37694;BME280;23531;50.122;8.644;2024-01-07T02:48:33;100235.63;;;6.76;74.31
37694;BME280;23531;50.122;8.644;2024-01-07T02:50:34;100240.75;;;6.77;74.19
37694;BME280;23531;50.122;8.644;2024-01-07T02:52:35;100237.56;;;6.67;74.69
37694;BME280;23531;50.122;8.644;2024-01-07T02:54:36;100243.38;;;6.71;74.82
37694;BME280;23531;50.122;8.644;2024-01-07T02:56:38;100237.84;;;6.72;74.34
37694;BME280;23531;50.122;8.644;2024-01-07T02:58:40;100241.81;;;6.76;74.86
37694;BME280;23531;50.122;8.644;2024-01-07T03:00:41;100240.88;;;6.69;74.42
37694;BME280;23531;50.122;8.644;2024-01-07T03:02:43;100243.13;;;6.66;74.55
37694;BME280;23531;50.122;8.644;2024-01-07T03:04:44;100234.06;;;6.67;74.80
37694;BME280;23531;50.122;8.644;2024-01-07T03:06:45;100243.56;;;6.69;75.04
37694;BME280;23531;50.122;8.644;2024-01-07T03:08:47;100243.75;;;6.68;74.41
37694;BME280;23531;50.122;8.644;2024-01-07T03:10:49;100245.81;;;6.66;74.94
37694;BME280;23531;50.122;8.644;2024-01-07T03:12:51;100244.88;;;6.59;75.16
37694;BME280;23531;50.122;8.644;2024-01-07T03:14:52;100245.22;;;6.70;74.87
37694;BME280;23531;50.122;8.644;2024-01-07T03:16:54;100246.22;;;6.69;74.93
37694;BME280;23531;50.122;8.644;2024-01-07T03:18:55;100244.97;;;6.65;75.30
37694;BME280;23531;50.122;8.644;2024-01-07T03:20:56;100246.50;;;6.74;75.28
37694;BME280;23531;50.122;8.644;2024-01-07T03:22:59;100245.88;;;6.72;75.18
37694;BME280;23531;50.122;8.644;2024-01-07T03:25:01;100250.56;;;6.70;75.02
37694;BME280;23531;50.122;8.644;2024-01-07T03:27:01;100243.69;;;6.61;75.29
37694;BME280;23531;50.122;8.644;2024-01-07T03:29:04;100250.31;;;6.65;75.34
37694;BME280;23531;50.122;8.644;2024-01-07T03:31:08;100251.00;;;6.52;76.02
37694;BME280;23531;50.122;8.644;2024-01-07T03:33:10;100249.75;;;6.55;75.67
37694;BME280;23531;50.122;8.644;2024-01-07T03:35:11;100250.53;;;6.49;76.23
37694;BME280;23531;50.122;8.644;2024-01-07T03:37:13;100255.56;;;6.59;76.11
37694;BME280;23531;50.122;8.644;2024-01-07T03:39:14;100254.38;;;6.61;76.24
37694;BME280;23531;50.122;8.644;2024-01-07T03:41:16;100260.19;;;6.65;76.15
37694;BME280;23531;50.122;8.644;2024-01-07T03:43:19;100249.91;;;6.68;76.22
37694;BME280;23531;50.122;8.644;2024-01-07T03:45:21;100256.03;;;6.62;76.17
37694;BME280;23531;50.122;8.644;2024-01-07T03:47:23;100258.06;;;6.60;76.94
37694;BME280;23531;50.122;8.644;2024-01-07T03:49:24;100263.34;;;6.53;76.95
37694;BME280;23531;50.122;8.644;2024-01-07T03:51:25;100257.41;;;6.58;76.94
37694;BME280;23531;50.122;8.644;2024-01-07T03:53:27;100260.03;;;6.51;77.36
37694;BME280;23531;50.122;8.644;2024-01-07T03:55:27;100258.53;;;6.49;77.24
37694;BME280;23531;50.122;8.644;2024-01-07T03:57:29;100255.16;;;6.40;77.24
37694;BME280;23531;50.122;8.644;2024-01-07T03:59:29;100258.66;;;6.41;77.25
37694;BME280;23531;50.122;8.644;2024-01-07T04:01:32;100271.06;;;6.48;77.33
37694;BME280;23531;50.122;8.644;2024-01-07T04:03:33;100271.53;;;6.52;77.40
37694;BME280;23531;50.122;8.644;2024-01-07T04:05:34;100265.38;;;6.51;77.09
37694;BME280;23531;50.122;8.644;2024-01-07T04:07:36;100271.78;;;6.57;77.52
37694;BME280;23531;50.122;8.644;2024-01-07T04:09:38;100275.09;;;6.59;77.15
37694;BME280;23531;50.122;8.644;2024-01-07T04:11:39;100270.59;;;6.45;77.54
37694;BME280;23531;50.122;8.644;2024-01-07T04:13:41;100282.06;;;6.39;77.50
37694;BME280;23531;50.122;8.644;2024-01-07T04:15:43;100278.47;;;6.32;78.00
37694;BME280;23531;50.122;8.644;2024-01-07T04:17:45;100280.75;;;6.35;78.09
37694;BME280;23531;50.122;8.644;2024-01-07T04:19:46;100284.97;;;6.44;77.53
37694;BME280;23531;50.122;8.644;2024-01-07T04:21:47;100279.09;;;6.34;77.56
37694;BME280;23531;50.122;8.644;2024-01-07T04:23:49;100277.81;;;6.30;77.70
37694;BME280;23531;50.122;8.644;2024-01-07T04:25:50;100281.22;;;6.38;77.89
37694;BME280;23531;50.122;8.644;2024-01-07T04:27:52;100272.91;;;6.33;77.77
37694;BME280;23531;50.122;8.644;2024-01-07T04:29:53;100281.41;;;6.37;77.76
37694;BME280;23531;50.122;8.644;2024-01-07T04:31:54;100278.38;;;6.40;77.63
37694;BME280;23531;50.122;8.644;2024-01-07T04:33:57;100285.25;;;6.49;77.84
37694;BME280;23531;50.122;8.644;2024-01-07T04:35:57;100284.25;;;6.50;77.37
37694;BME280;23531;50.122;8.644;2024-01-07T04:38:00;100280.75;;;6.49;77.61
37694;BME280;23531;50.122;8.644;2024-01-07T04:40:02;100298.97;;;6.46;77.65
37694;BME280;23531;50.122;8.644;2024-01-07T04:42:04;100298.31;;;6.44;77.64
37694;BME280;23531;50.122;8.644;2024-01-07T04:44:05;100300.63;;;6.32;78.26
37694;BME280;23531;50.122;8.644;2024-01-07T04:46:07;100301.69;;;6.31;78.09
37694;BME280;23531;50.122;8.644;2024-01-07T04:48:10;100306.19;;;6.31;78.01
37694;BME280;23531;50.122;8.644;2024-01-07T04:50:13;100313.72;;;6.12;78.77
37694;BME280;23531;50.122;8.644;2024-01-07T04:52:15;100322.84;;;6.18;79.47
37694;BME280;23531;50.122;8.644;2024-01-07T04:54:16;100320.56;;;6.30;78.66
37694;BME280;23531;50.122;8.644;2024-01-07T04:56:19;100320.56;;;6.30;78.79
37694;BME280;23531;50.122;8.644;2024-01-07T04:58:20;100320.63;;;6.36;78.69
37694;BME280;23531;50.122;8.644;2024-01-07T05:00:20;100321.53;;;6.43;78.21
37694;BME280;23531;50.122;8.644;2024-01-07T05:02:22;100326.16;;;6.49;77.99
37694;BME280;23531;50.122;8.644;2024-01-07T05:04:24;100327.34;;;6.47;78.16
37694;BME280;23531;50.122;8.644;2024-01-07T05:06:26;100326.16;;;6.49;78.07
37694;BME280;23531;50.122;8.644;2024-01-07T05:08:28;100329.38;;;6.45;78.10
37694;BME280;23531;50.122;8.644;2024-01-07T05:10:29;100332.97;;;6.52;77.84
37694;BME280;23531;50.122;8.644;2024-01-07T05:12:30;100342.53;;;6.46;77.96
37694;BME280;23531;50.122;8.644;2024-01-07T05:14:32;100337.13;;;6.40;77.72
37694;BME280;23531;50.122;8.644;2024-01-07T05:16:33;100346.63;;;6.42;77.67
37694;BME280;23531;50.122;8.644;2024-01-07T05:18:35;100342.91;;;6.43;77.50
37694;BME280;23531;50.122;8.644;2024-01-07T05:20:36;100343.00;;;6.50;77.12
37694;BME280;23531;50.122;8.644;2024-01-07T05:22:39;100345.03;;;6.48;77.55
37694;BME280;23531;50.122;8.644;2024-01-07T05:24:40;100354.06;;;6.47;76.85
37694;BME280;23531;50.122;8.644;2024-01-07T05:26:42;100354.97;;;6.25;77.46
37694;BME280;23531;50.122;8.644;2024-01-07T05:28:43;100359.66;;;6.23;77.78
37694;BME280;23531;50.122;8.644;2024-01-07T05:30:45;100360.44;;;6.31;77.47
37694;BME280;23531;50.122;8.644;2024-01-07T05:32:46;100360.88;;;6.35;77.45
37694;BME280;23531;50.122;8.644;2024-01-07T05:34:48;100364.47;;;6.27;77.44
37694;BME280;23531;50.122;8.644;2024-01-07T05:36:50;100371.81;;;6.25;77.50
37694;BME280;23531;50.122;8.644;2024-01-07T05:38:53;100375.06;;;6.35;77.38
37694;BME280;23531;50.122;8.644;2024-01-07T05:40:54;100372.84;;;6.39;76.82
37694;BME280;23531;50.122;8.644;2024-01-07T05:42:55;100371.94;;;6.32;76.92
37694;BME280;23531;50.122;8.644;2024-01-07T05:44:57;100377.84;;;6.42;76.39
37694;BME280;23531;50.122;8.644;2024-01-07T05:46:58;100385.47;;;6.30;76.48
37694;BME280;23531;50.122;8.644;2024-01-07T05:49:00;100391.34;;;6.26;76.36
37694;BME280;23531;50.122;8.644;2024-01-07T05:51:01;100389.41;;;6.19;77.09
37694;BME280;23531;50.122;8.644;2024-01-07T05:53:03;100394.00;;;6.26;75.76
37694;BME280;23531;50.122;8.644;2024-01-07T05:55:07;100389.66;;;6.10;76.12
37694;BME280;23531;50.122;8.644;2024-01-07T05:57:08;100397.22;;;6.21;75.92
37694;BME280;23531;50.122;8.644;2024-01-07T05:59:09;100398.59;;;6.02;76.15
37694;BME280;23531;50.122;8.644;2024-01-07T06:01:10;100405.22;;;6.06;75.96
37694;BME280;23531;50.122;8.644;2024-01-07T06:03:12;100407.53;;;6.09;75.88
37694;BME280;23531;50.122;8.644;2024-01-07T06:05:13;100407.91;;;6.06;76.06
37694;BME280;23531;50.122;8.644;2024-01-07T06:07:14;100409.91;;;6.04;75.62
37694;BME280;23531;50.122;8.644;2024-01-07T06:09:16;100415.91;;;6.06;75.49
37694;BME280;23531;50.122;8.644;2024-01-07T06:11:19;100415.25;;;6.04;75.64
37694;BME280;23531;50.122;8.644;2024-01-07T06:13:20;100420.50;;;5.98;75.61
37694;BME280;23531;50.122;8.644;2024-01-07T06:15:21;100424.75;;;5.84;76.13
37694;BME280;23531;50.122;8.644;2024-01-07T06:17:22;100421.38;;;5.90;75.50
37694;BME280;23531;50.122;8.644;2024-01-07T06:19:24;100428.19;;;5.93;75.60
37694;BME280;23531;50.122;8.644;2024-01-07T06:21:26;100420.28;;;5.99;75.30
37694;BME280;23531;50.122;8.644;2024-01-07T06:23:28;100433.84;;;5.98;75.35
37694;BME280;23531;50.122;8.644;2024-01-07T06:25:28;100442.72;;;5.90;75.50
37694;BME280;23531;50.122;8.644;2024-01-07T06:27:31;100443.19;;;5.94;75.37
37694;BME280;23531;50.122;8.644;2024-01-07T06:29:32;100448.53;;;5.94;75.50
37694;BME280;23531;50.122;8.644;2024-01-07T06:31:34;100455.72;;;5.93;75.69
37694;BME280;23531;50.122;8.644;2024-01-07T06:33:36;100457.84;;;5.98;75.37
37694;BME280;23531;50.122;8.644;2024-01-07T06:35:37;100458.63;;;6.06;74.86
37694;BME280;23531;50.122;8.644;2024-01-07T06:37:38;100467.03;;;5.95;75.17
37694;BME280;23531;50.122;8.644;2024-01-07T06:39:39;100466.56;;;5.92;74.57
37694;BME280;23531;50.122;8.644;2024-01-07T06:41:40;100468.72;;;5.96;74.45
37694;BME280;23531;50.122;8.644;2024-01-07T06:43:43;100469.22;;;5.92;74.39
37694;BME280;23531;50.122;8.644;2024-01-07T06:45:45;100464.38;;;5.87;74.23
37694;BME280;23531;50.122;8.644;2024-01-07T06:47:46;100477.13;;;5.77;74.39
37694;BME280;23531;50.122;8.644;2024-01-07T06:49:48;100475.44;;;5.84;74.20
37694;BME280;23531;50.122;8.644;2024-01-07T06:51:49;100486.28;;;5.82;74.01
37694;BME280;23531;50.122;8.644;2024-01-07T06:53:50;100486.97;;;5.76;74.02
37694;BME280;23531;50.122;8.644;2024-01-07T06:55:52;100488.41;;;5.64;74.48
37694;BME280;23531;50.122;8.644;2024-01-07T06:57:53;100493.75;;;5.64;74.45
37694;BME280;23531;50.122;8.644;2024-01-07T06:59:55;100497.63;;;5.54;74.46
37694;BME280;23531;50.122;8.644;2024-01-07T07:01:57;100498.25;;;5.64;74.40
37694;BME280;23531;50.122;8.644;2024-01-07T07:03:58;100505.22;;;5.65;74.28
37694;BME280;23531;50.122;8.644;2024-01-07T07:06:00;100505.88;;;5.67;74.33
37694;BME280;23531;50.122;8.644;2024-01-07T07:08:01;100505.06;;;5.66;73.96
37694;BME280;23531;50.122;8.644;2024-01-07T07:10:03;100504.38;;;5.72;73.71
37694;BME280;23531;50.122;8.644;2024-01-07T07:12:05;100509.34;;;5.75;73.57
37694;BME280;23531;50.122;8.644;2024-01-07T07:14:08;100501.53;;;5.74;73.44
37694;BME280;23531;50.122;8.644;2024-01-07T07:16:09;100510.13;;;5.53;73.77
37694;BME280;23531;50.122;8.644;2024-01-07T07:18:12;100516.63;;;5.59;73.94
37694;BME280;23531;50.122;8.644;2024-01-07T07:20:13;100510.34;;;5.52;73.67
37694;BME280;23531;50.122;8.644;2024-01-07T07:22:14;100524.69;;;5.42;73.70
37694;BME280;23531;50.122;8.644;2024-01-07T07:24:15;100526.06;;;5.38;73.38
37694;BME280;23531;50.122;8.644;2024-01-07T07:26:16;100525.34;;;5.44;73.22
37694;BME280;23531;50.122;8.644;2024-01-07T07:28:18;100531.84;;;5.42;73.33
37694;BME280;23531;50.122;8.644;2024-01-07T07:30:19;100539.22;;;5.40;73.19
37694;BME280;23531;50.122;8.644;2024-01-07T07:32:22;100541.88;;;5.40;72.78
37694;BME280;23531;50.122;8.644;2024-01-07T07:34:23;100542.47;;;5.11;73.90
37694;BME280;23531;50.122;8.644;2024-01-07T07:36:25;100546.84;;;5.04;74.18
37694;BME280;23531;50.122;8.644;2024-01-07T07:38:26;100555.09;;;5.25;73.61
37694;BME280;23531;50.122;8.644;2024-01-07T07:40:28;100561.69;;;5.06;73.96
37694;BME280;23531;50.122;8.644;2024-01-07T07:42:28;100557.16;;;5.15;74.16
37694;BME280;23531;50.122;8.644;2024-01-07T07:44:29;100566.16;;;4.98;74.42
37694;BME280;23531;50.122;8.644;2024-01-07T07:46:31;100565.16;;;4.99;74.45
37694;BME280;23531;50.122;8.644;2024-01-07T07:48:34;100568.81;;;5.14;74.16
37694;BME280;23531;50.122;8.644;2024-01-07T07:50:35;100578.63;;;5.14;73.94
37694;BME280;23531;50.122;8.644;2024-01-07T07:52:36;100576.25;;;5.27;73.08
37694;BME280;23531;50.122;8.644;2024-01-07T07:54:38;100578.72;;;5.36;73.20
37694;BME280;23531;50.122;8.644;2024-01-07T07:56:39;100585.06;;;5.35;73.01
37694;BME280;23531;50.122;8.644;2024-01-07T07:58:40;100584.50;;;5.01;73.20
37694;BME280;23531;50.122;8.644;2024-01-07T08:00:42;100590.53;;;4.70;74.88
37694;BME280;23531;50.122;8.644;2024-01-07T08:02:44;100589.50;;;4.96;74.07
37694;BME280;23531;50.122;8.644;2024-01-07T08:04:47;100597.09;;;5.23;73.47
37694;BME280;23531;50.122;8.644;2024-01-07T08:06:48;100601.09;;;5.27;73.01
37694;BME280;23531;50.122;8.644;2024-01-07T08:08:50;100603.13;;;5.17;73.00
37694;BME280;23531;50.122;8.644;2024-01-07T08:10:51;100610.44;;;5.15;73.40
37694;BME280;23531;50.122;8.644;2024-01-07T08:12:53;100608.13;;;5.12;73.57
37694;BME280;23531;50.122;8.644;2024-01-07T08:14:54;100610.94;;;5.10;73.46
37694;BME280;23531;50.122;8.644;2024-01-07T08:16:54;100616.28;;;5.19;73.29
37694;BME280;23531;50.122;8.644;2024-01-07T08:18:56;100618.81;;;4.96;74.14
37694;BME280;23531;50.122;8.644;2024-01-07T08:20:58;100624.97;;;5.04;73.93
37694;BME280;23531;50.122;8.644;2024-01-07T08:23:00;100622.31;;;5.04;73.67
37694;BME280;23531;50.122;8.644;2024-01-07T08:25:02;100620.97;;;5.00;74.06
37694;BME280;23531;50.122;8.644;2024-01-07T08:27:04;100624.13;;;5.04;73.28
37694;BME280;23531;50.122;8.644;2024-01-07T08:29:05;100632.78;;;5.06;73.41
37694;BME280;23531;50.122;8.644;2024-01-07T08:31:07;100630.63;;;5.01;73.54
37694;BME280;23531;50.122;8.644;2024-01-07T08:33:09;100621.84;;;4.85;74.41
37694;BME280;23531;50.122;8.644;2024-01-07T08:35:11;100635.81;;;4.95;73.91
37694;BME280;23531;50.122;8.644;2024-01-07T08:37:14;100632.44;;;5.09;73.36
37694;BME280;23531;50.122;8.644;2024-01-07T08:39:15;100636.09;;;5.08;73.28
37694;BME280;23531;50.122;8.644;2024-01-07T08:41:16;100640.94;;;5.13;73.26
37694;BME280;23531;50.122;8.644;2024-01-07T08:43:17;100644.97;;;4.92;73.79
37694;BME280;23531;50.122;8.644;2024-01-07T08:45:19;100649.13;;;4.46;75.04
37694;BME280;23531;50.122;8.644;2024-01-07T08:47:20;100645.78;;;4.77;75.16
37694;BME280;23531;50.122;8.644;2024-01-07T08:49:21;100648.13;;;5.04;74.22
37694;BME280;23531;50.122;8.644;2024-01-07T08:51:22;100653.13;;;5.07;73.79
37694;BME280;23531;50.122;8.644;2024-01-07T08:53:25;100658.09;;;5.10;74.01
37694;BME280;23531;50.122;8.644;2024-01-07T08:55:26;100666.06;;;5.26;73.39
37694;BME280;23531;50.122;8.644;2024-01-07T08:57:28;100663.25;;;5.20;73.42
37694;BME280;23531;50.122;8.644;2024-01-07T08:59:28;100660.25;;;5.23;73.16
37694;BME280;23531;50.122;8.644;2024-01-07T09:01:29;100661.25;;;5.22;72.65
37694;BME280;23531;50.122;8.644;2024-01-07T09:03:30;100662.56;;;5.26;72.79
37694;BME280;23531;50.122;8.644;2024-01-07T09:05:31;100667.03;;;5.33;72.38
37694;BME280;23531;50.122;8.644;2024-01-07T09:07:33;100667.75;;;5.19;72.05
37694;BME280;23531;50.122;8.644;2024-01-07T09:09:35;100668.09;;;5.16;72.27
37694;BME280;23531;50.122;8.644;2024-01-07T09:11:37;100673.09;;;5.19;72.08
37694;BME280;23531;50.122;8.644;2024-01-07T09:13:38;100675.75;;;5.11;72.14
37694;BME280;23531;50.122;8.644;2024-01-07T09:15:39;100675.44;;;4.98;72.43
37694;BME280;23531;50.122;8.644;2024-01-07T09:17:41;100687.75;;;5.15;71.88
37694;BME280;23531;50.122;8.644;2024-01-07T09:19:42;100683.75;;;5.19;71.62
37694;BME280;23531;50.122;8.644;2024-01-07T09:21:43;100687.56;;;5.25;71.07
37694;BME280;23531;50.122;8.644;2024-01-07T09:23:44;100694.72;;;5.32;71.17
37694;BME280;23531;50.122;8.644;2024-01-07T09:25:47;100695.56;;;5.41;70.34
37694;BME280;23531;50.122;8.644;2024-01-07T09:27:47;100708.03;;;5.32;71.04
37694;BME280;23531;50.122;8.644;2024-01-07T09:29:49;100713.56;;;5.15;70.98
37694;BME280;23531;50.122;8.644;2024-01-07T09:31:51;100703.72;;;5.23;70.43
37694;BME280;23531;50.122;8.644;2024-01-07T09:33:53;100716.41;;;5.13;70.44
37694;BME280;23531;50.122;8.644;2024-01-07T09:35:54;100713.72;;;5.21;70.14
37694;BME280;23531;50.122;8.644;2024-01-07T09:37:56;100724.06;;;5.00;70.33
37694;BME280;23531;50.122;8.644;2024-01-07T09:39:57;100717.75;;;5.01;70.04
37694;BME280;23531;50.122;8.644;2024-01-07T09:42:00;100730.38;;;4.66;70.13
37694;BME280;23531;50.122;8.644;2024-01-07T09:44:03;100718.59;;;4.85;70.35
37694;BME280;23531;50.122;8.644;2024-01-07T09:46:04;100721.41;;;4.92;69.60
37694;BME280;23531;50.122;8.644;2024-01-07T09:48:06;100727.06;;;5.05;69.26
37694;BME280;23531;50.122;8.644;2024-01-07T09:50:08;100726.91;;;5.15;68.73
37694;BME280;23531;50.122;8.644;2024-01-07T09:52:11;100721.06;;;5.03;68.67
37694;BME280;23531;50.122;8.644;2024-01-07T09:54:15;100725.06;;;5.15;68.49
37694;BME280;23531;50.122;8.644;2024-01-07T09:56:20;100724.41;;;5.29;68.02
37694;BME280;23531;50.122;8.644;2024-01-07T09:58:25;100732.72;;;5.34;67.96
37694;BME280;23531;50.122;8.644;2024-01-07T10:00:27;100736.06;;;5.28;67.98
37694;BME280;23531;50.122;8.644;2024-01-07T10:02:29;100732.56;;;5.11;67.84
37694;BME280;23531;50.122;8.644;2024-01-07T10:04:30;100733.06;;;5.07;67.71
37694;BME280;23531;50.122;8.644;2024-01-07T10:06:31;100739.06;;;5.01;67.17
37694;BME280;23531;50.122;8.644;2024-01-07T10:08:33;100743.91;;;5.05;67.44
37694;BME280;23531;50.122;8.644;2024-01-07T10:10:35;100739.56;;;4.96;67.70
37694;BME280;23531;50.122;8.644;2024-01-07T10:12:36;100750.69;;;5.08;67.22
37694;BME280;23531;50.122;8.644;2024-01-07T10:14:39;100738.72;;;5.20;67.22
37694;BME280;23531;50.122;8.644;2024-01-07T10:16:41;100740.22;;;4.98;67.86
37694;BME280;23531;50.122;8.644;2024-01-07T10:18:43;100749.03;;;4.99;67.65
37694;BME280;23531;50.122;8.644;2024-01-07T10:20:44;100746.56;;;5.05;67.60
37694;BME280;23531;50.122;8.644;2024-01-07T10:22:46;100756.03;;;5.08;67.15
37694;BME280;23531;50.122;8.644;2024-01-07T10:24:51;100753.56;;;5.06;67.07
37694;BME280;23531;50.122;8.644;2024-01-07T10:26:55;100752.38;;;5.09;66.84
37694;BME280;23531;50.122;8.644;2024-01-07T10:28:56;100747.38;;;5.14;67.42
37694;BME280;23531;50.122;8.644;2024-01-07T10:30:59;100753.91;;;4.95;67.55
37694;BME280;23531;50.122;8.644;2024-01-07T10:33:02;100757.53;;;4.70;67.82
37694;BME280;23531;50.122;8.644;2024-01-07T10:35:04;100758.50;;;4.77;67.75
37694;BME280;23531;50.122;8.644;2024-01-07T10:37:06;100759.03;;;4.72;67.76
37694;BME280;23531;50.122;8.644;2024-01-07T10:39:09;100757.34;;;4.80;67.20
37694;BME280;23531;50.122;8.644;2024-01-07T10:41:11;100759.50;;;4.60;67.39
37694;BME280;23531;50.122;8.644;2024-01-07T10:43:14;100758.44;;;4.45;67.87